createdAt,value
2017-10-15T00:00:37.054Z,13.9
2017-10-15T00:01:38.679Z,13.8
2017-10-15T00:02:40.285Z,13.8
2017-10-15T00:03:41.903Z,13.8
2017-10-15T00:04:43.513Z,13.8
2017-10-15T00:05:45.116Z,13.7
2017-10-15T00:06:46.735Z,13.7
2017-10-15T00:07:48.339Z,13.8
2017-10-15T00:08:49.950Z,13.8
2017-10-15T00:09:51.558Z,13.8
2017-10-15T00:10:53.166Z,13.9
2017-10-15T00:11:54.799Z,13.8
2017-10-15T00:12:56.404Z,13.8
2017-10-15T00:13:58.023Z,13.8
2017-10-15T00:14:59.628Z,13.8
2017-10-15T00:16:01.238Z,13.8
2017-10-15T00:17:02.849Z,13.8
2017-10-15T00:18:04.466Z,13.8
2017-10-15T00:19:06.080Z,13.9
2017-10-15T00:20:07.700Z,13.7
2017-10-15T00:21:09.306Z,13.7
2017-10-15T00:22:10.910Z,13.7
2017-10-15T00:23:12.528Z,13.7
2017-10-15T00:24:14.143Z,13.7
2017-10-15T00:25:15.749Z,13.7
2017-10-15T00:26:17.353Z,13.7
2017-10-15T00:27:18.965Z,13.7
2017-10-15T00:28:20.577Z,13.6
2017-10-15T00:29:22.185Z,13.6
2017-10-15T00:30:23.792Z,13.6
2017-10-15T00:31:25.399Z,13.7
2017-10-15T00:32:27.014Z,13.7
2017-10-15T00:33:28.655Z,13.6
2017-10-15T00:34:30.263Z,13.5
2017-10-15T00:35:31.872Z,13.6
2017-10-15T00:36:33.486Z,13.6
2017-10-15T00:37:35.092Z,13.6
2017-10-15T00:38:36.707Z,13.5
2017-10-15T00:39:38.317Z,13.5
2017-10-15T00:40:39.928Z,13.4
2017-10-15T00:41:41.537Z,13.5
2017-10-15T00:42:43.146Z,13.4
2017-10-15T00:43:44.751Z,13.4
2017-10-15T00:44:46.363Z,13.4
2017-10-15T00:45:47.979Z,13.4
2017-10-15T00:46:49.581Z,13.4
2017-10-15T00:47:51.198Z,13.3
2017-10-15T00:48:52.802Z,13.4
2017-10-15T00:49:54.417Z,13.4
2017-10-15T00:50:56.020Z,13.3
2017-10-15T00:51:57.637Z,13.4
2017-10-15T00:52:59.241Z,13.4
2017-10-15T00:54:00.868Z,13.4
2017-10-15T00:55:02.463Z,13.4
2017-10-15T00:56:04.071Z,13.4
2017-10-15T00:57:05.681Z,13.4
2017-10-15T00:58:07.293Z,13.5
2017-10-15T00:59:08.898Z,13.5
2017-10-15T01:00:10.506Z,13.6
2017-10-15T01:01:12.120Z,13.6
2017-10-15T01:02:13.721Z,13.7
2017-10-15T01:03:15.333Z,13.7
2017-10-15T01:04:16.937Z,13.8
2017-10-15T01:05:18.548Z,13.8
2017-10-15T01:06:20.151Z,13.7
2017-10-15T01:07:21.767Z,13.6
2017-10-15T01:08:23.373Z,13.6
2017-10-15T01:09:24.979Z,13.7
2017-10-15T01:10:26.590Z,13.6
2017-10-15T01:11:28.195Z,13.7
2017-10-15T01:12:29.812Z,13.7
2017-10-15T01:13:31.426Z,13.6
2017-10-15T01:14:33.037Z,13.6
2017-10-15T01:15:34.647Z,13.5
2017-10-15T01:16:36.257Z,13.4
2017-10-15T01:17:37.867Z,13.4
2017-10-15T01:18:39.473Z,13.4
2017-10-15T01:19:41.084Z,13.4
2017-10-15T01:20:42.696Z,13.4
2017-10-15T01:21:44.308Z,13.4
2017-10-15T01:22:45.924Z,13.4
2017-10-15T01:23:47.527Z,13.4
2017-10-15T01:24:49.143Z,13.3
2017-10-15T01:25:50.743Z,13.3
2017-10-15T01:26:52.349Z,13.3
2017-10-15T01:27:53.955Z,13.3
2017-10-15T01:28:55.569Z,13.2
2017-10-15T01:29:57.178Z,13.1
2017-10-15T01:30:58.790Z,13.2
2017-10-15T01:32:00.393Z,13.2
2017-10-15T01:33:02.008Z,13.2
2017-10-15T01:34:03.613Z,13.2
2017-10-15T01:35:05.222Z,13.1
2017-10-15T01:36:06.833Z,13.1
2017-10-15T01:37:08.451Z,13.3
2017-10-15T01:38:10.046Z,13.3
2017-10-15T01:39:11.659Z,13.2
2017-10-15T01:40:13.262Z,13.3
2017-10-15T01:41:14.874Z,13.3
2017-10-15T01:42:16.480Z,13.3
2017-10-15T01:43:18.088Z,13.2
2017-10-15T01:44:19.701Z,13.3
2017-10-15T01:45:21.306Z,13.2
2017-10-15T01:46:22.918Z,13.2
2017-10-15T01:47:24.523Z,13.3
2017-10-15T01:48:26.136Z,13.3
2017-10-15T01:49:27.740Z,13.3
2017-10-15T01:50:29.358Z,13.3
2017-10-15T01:51:30.970Z,13.3
2017-10-15T01:52:32.571Z,13.2
2017-10-15T01:53:34.176Z,13.3
2017-10-15T01:54:35.787Z,13.2
2017-10-15T01:55:37.393Z,13.1
2017-10-15T01:56:45.530Z,13.1
2017-10-15T01:57:47.140Z,13.1
2017-10-15T01:58:48.751Z,13.1
2017-10-15T01:59:50.350Z,13.1
2017-10-15T02:00:51.963Z,13.0
2017-10-15T02:01:53.570Z,13.0
2017-10-15T02:02:55.174Z,13.0
2017-10-15T02:03:56.788Z,13.0
2017-10-15T02:04:58.391Z,13.0
2017-10-15T02:05:59.998Z,13.1
2017-10-15T02:07:01.628Z,13.1
2017-10-15T02:08:03.232Z,13.1
2017-10-15T02:09:04.852Z,13.0
2017-10-15T02:10:06.450Z,13.1
2017-10-15T02:11:08.057Z,13.0
2017-10-15T02:12:09.665Z,13.0
2017-10-15T02:13:11.285Z,13.0
2017-10-15T02:14:12.887Z,13.1
2017-10-15T02:15:14.489Z,13.1
2017-10-15T02:16:16.097Z,13.1
2017-10-15T02:17:17.706Z,13.1
2017-10-15T02:18:19.317Z,13.1
2017-10-15T02:19:20.930Z,13.1
2017-10-15T02:20:22.557Z,13.0
2017-10-15T02:21:24.143Z,13.1
2017-10-15T02:22:25.753Z,13.1
2017-10-15T02:23:27.358Z,13.1
2017-10-15T02:24:28.968Z,13.1
2017-10-15T02:25:30.571Z,13.1
2017-10-15T02:26:32.178Z,13.1
2017-10-15T02:27:33.792Z,13.1
2017-10-15T02:28:35.401Z,13.2
2017-10-15T02:29:37.007Z,13.2
2017-10-15T02:30:38.614Z,13.1
2017-10-15T02:31:40.225Z,13.1
2017-10-15T02:32:41.842Z,13.1
2017-10-15T02:33:43.436Z,13.1
2017-10-15T02:34:45.056Z,13.1
2017-10-15T02:35:46.665Z,13.1
2017-10-15T02:36:48.274Z,13.0
2017-10-15T02:37:49.886Z,13.0
2017-10-15T02:38:51.494Z,12.9
2017-10-15T02:39:53.098Z,12.9
2017-10-15T02:40:54.708Z,12.9
2017-10-15T02:41:56.320Z,12.9
2017-10-15T02:42:57.926Z,12.9
2017-10-15T02:43:59.541Z,12.8
2017-10-15T02:45:01.141Z,12.8
2017-10-15T02:46:02.753Z,12.7
2017-10-15T02:47:04.356Z,12.7
2017-10-15T02:48:05.986Z,12.8
2017-10-15T02:49:07.592Z,12.7
2017-10-15T02:50:09.198Z,12.7
2017-10-15T02:51:10.808Z,12.7
2017-10-15T02:52:12.409Z,12.7
2017-10-15T02:53:14.018Z,12.6
2017-10-15T02:54:15.655Z,12.5
2017-10-15T02:55:17.261Z,12.5
2017-10-15T02:56:18.872Z,12.5
2017-10-15T02:57:20.482Z,12.4
2017-10-15T02:58:22.085Z,12.4
2017-10-15T02:59:23.697Z,12.5
2017-10-15T03:00:25.301Z,12.5
2017-10-15T03:01:26.913Z,12.5
2017-10-15T03:02:28.516Z,12.5
2017-10-15T03:03:30.133Z,12.5
2017-10-15T03:04:31.735Z,12.5
2017-10-15T03:05:33.339Z,12.5
2017-10-15T03:06:34.950Z,12.4
2017-10-15T03:07:36.558Z,12.3
2017-10-15T03:08:38.166Z,12.4
2017-10-15T03:09:39.776Z,12.4
2017-10-15T03:10:41.381Z,12.4
2017-10-15T03:11:42.992Z,12.3
2017-10-15T03:12:44.595Z,12.5
2017-10-15T03:13:46.204Z,12.5
2017-10-15T03:14:47.808Z,12.4
2017-10-15T03:15:49.414Z,12.6
2017-10-15T03:16:51.026Z,12.5
2017-10-15T03:17:52.637Z,12.6
2017-10-15T03:18:54.260Z,12.7
2017-10-15T03:19:55.866Z,12.7
2017-10-15T03:20:57.477Z,12.7
2017-10-15T03:21:59.080Z,12.7
2017-10-15T03:23:00.691Z,12.7
2017-10-15T03:24:02.296Z,12.9
2017-10-15T03:25:03.913Z,12.8
2017-10-15T03:26:05.522Z,12.8
2017-10-15T03:27:07.131Z,12.8
2017-10-15T03:28:08.738Z,12.8
2017-10-15T03:29:10.349Z,12.8
2017-10-15T03:30:11.957Z,12.7
2017-10-15T03:31:13.563Z,12.9
2017-10-15T03:32:15.182Z,12.7
2017-10-15T03:33:16.803Z,12.8
2017-10-15T03:34:18.412Z,12.8
2017-10-15T03:35:20.016Z,12.8
2017-10-15T03:36:21.619Z,12.8
2017-10-15T03:37:23.233Z,12.8
2017-10-15T03:38:24.845Z,12.7
2017-10-15T03:39:26.451Z,12.7
2017-10-15T03:40:28.068Z,12.8
2017-10-15T03:41:29.671Z,12.8
2017-10-15T03:42:31.275Z,12.7
2017-10-15T03:43:32.880Z,12.8
2017-10-15T03:44:34.485Z,12.8
2017-10-15T03:45:36.098Z,12.9
2017-10-15T03:46:37.705Z,12.8
2017-10-15T03:47:39.322Z,12.8
2017-10-15T03:48:40.920Z,12.8
2017-10-15T03:49:42.532Z,12.8
2017-10-15T03:50:44.134Z,12.8
2017-10-15T03:51:45.746Z,12.8
2017-10-15T03:52:47.351Z,12.8
2017-10-15T03:53:48.964Z,12.8
2017-10-15T03:54:50.572Z,12.8
2017-10-15T03:55:52.178Z,12.8
2017-10-15T03:56:53.787Z,12.8
2017-10-15T03:57:55.396Z,12.7
2017-10-15T03:58:57.006Z,12.8
2017-10-15T03:59:58.617Z,12.8
2017-10-15T04:01:00.222Z,12.8
2017-10-15T04:02:01.834Z,12.8
2017-10-15T04:03:03.441Z,12.8
2017-10-15T04:04:05.045Z,12.7
2017-10-15T04:05:06.657Z,12.8
2017-10-15T04:06:08.261Z,12.7
2017-10-15T04:07:09.875Z,12.7
2017-10-15T04:08:11.481Z,12.7
2017-10-15T04:09:13.092Z,12.7
2017-10-15T04:10:14.697Z,12.7
2017-10-15T04:11:16.306Z,12.6
2017-10-15T04:12:17.909Z,12.6
2017-10-15T04:13:19.515Z,12.6
2017-10-15T04:14:21.122Z,12.6
2017-10-15T04:15:22.732Z,12.5
2017-10-15T04:16:24.338Z,12.5
2017-10-15T04:17:25.946Z,12.5
2017-10-15T04:18:27.548Z,12.5
2017-10-15T04:19:29.163Z,12.5
2017-10-15T04:20:30.768Z,12.5
2017-10-15T04:21:32.378Z,12.5
2017-10-15T04:22:33.990Z,12.5
2017-10-15T04:23:35.600Z,12.5
2017-10-15T04:24:37.203Z,12.4
2017-10-15T04:25:38.809Z,12.5
2017-10-15T04:26:40.425Z,12.5
2017-10-15T04:27:42.033Z,12.5
2017-10-15T04:28:43.640Z,12.3
2017-10-15T04:29:45.255Z,12.3
2017-10-15T04:30:46.858Z,12.3
2017-10-15T04:31:48.459Z,12.2
2017-10-15T04:32:50.073Z,12.2
2017-10-15T04:33:51.682Z,12.2
2017-10-15T04:34:53.288Z,12.2
2017-10-15T04:35:54.901Z,12.1
2017-10-15T04:36:56.509Z,12.1
2017-10-15T04:37:58.136Z,12.1
2017-10-15T04:38:59.726Z,12.0
2017-10-15T04:40:01.336Z,12.0
2017-10-15T04:41:02.939Z,12.0
2017-10-15T04:42:04.552Z,12.0
2017-10-15T04:43:06.163Z,12.0
2017-10-15T04:44:07.773Z,11.9
2017-10-15T04:45:09.382Z,11.9
2017-10-15T04:46:10.990Z,11.8
2017-10-15T04:47:12.592Z,11.9
2017-10-15T04:48:14.206Z,12.0
2017-10-15T04:49:15.811Z,11.9
2017-10-15T04:50:17.419Z,11.9
2017-10-15T04:51:19.029Z,11.9
2017-10-15T04:52:20.632Z,12.0
2017-10-15T04:53:22.243Z,11.9
2017-10-15T04:54:23.852Z,11.9
2017-10-15T04:55:25.458Z,11.9
2017-10-15T04:56:27.060Z,11.9
2017-10-15T04:57:28.674Z,11.8
2017-10-15T04:58:30.284Z,11.9
2017-10-15T04:59:31.888Z,11.9
2017-10-15T05:00:33.492Z,11.8
2017-10-15T05:01:35.102Z,11.8
2017-10-15T05:02:36.708Z,11.8
2017-10-15T05:03:38.319Z,11.7
2017-10-15T05:04:39.930Z,11.7
2017-10-15T05:05:41.535Z,11.7
2017-10-15T05:06:43.146Z,11.7
2017-10-15T05:07:44.749Z,11.7
2017-10-15T05:08:46.352Z,11.8
2017-10-15T05:09:47.967Z,11.7
2017-10-15T05:10:49.574Z,11.7
2017-10-15T05:11:51.178Z,11.7
2017-10-15T05:12:52.786Z,11.8
2017-10-15T05:13:54.397Z,11.8
2017-10-15T05:14:56.012Z,11.9
2017-10-15T05:15:57.617Z,11.8
2017-10-15T05:16:59.227Z,11.9
2017-10-15T05:18:00.833Z,12.1
2017-10-15T05:19:02.444Z,12.0
2017-10-15T05:20:04.059Z,12.1
2017-10-15T05:21:05.662Z,12.2
2017-10-15T05:22:07.275Z,12.2
2017-10-15T05:23:08.881Z,12.2
2017-10-15T05:24:10.492Z,12.1
2017-10-15T05:25:12.107Z,12.2
2017-10-15T05:26:13.708Z,12.1
2017-10-15T05:27:15.311Z,12.1
2017-10-15T05:28:16.920Z,12.1
2017-10-15T05:29:18.524Z,12.0
2017-10-15T05:30:20.136Z,12.1
2017-10-15T05:31:21.740Z,12.1
2017-10-15T05:32:23.360Z,12.1
2017-10-15T05:33:24.963Z,12.2
2017-10-15T05:34:26.572Z,12.3
2017-10-15T05:35:28.186Z,12.3
2017-10-15T05:36:29.791Z,12.5
2017-10-15T05:37:31.404Z,12.4
2017-10-15T05:38:33.005Z,12.4
2017-10-15T05:39:34.620Z,12.4
2017-10-15T05:40:36.224Z,12.5
2017-10-15T05:41:37.837Z,12.5
2017-10-15T05:42:39.440Z,12.6
2017-10-15T05:43:41.053Z,12.6
2017-10-15T05:44:42.658Z,12.5
2017-10-15T05:45:44.297Z,12.6
2017-10-15T05:46:45.896Z,12.5
2017-10-15T05:47:47.514Z,12.5
2017-10-15T05:48:49.122Z,12.5
2017-10-15T05:49:50.733Z,12.5
2017-10-15T05:50:52.344Z,12.5
2017-10-15T05:51:53.958Z,12.6
2017-10-15T05:52:55.563Z,12.6
2017-10-15T05:53:57.177Z,12.7
2017-10-15T05:54:58.797Z,12.6
2017-10-15T05:56:00.409Z,12.6
2017-10-15T05:57:02.016Z,12.6
2017-10-15T05:58:03.626Z,12.6
2017-10-15T05:59:05.238Z,12.6
2017-10-15T06:00:06.847Z,12.6
2017-10-15T06:01:08.457Z,12.7
2017-10-15T06:02:10.065Z,12.7
2017-10-15T06:03:11.684Z,12.7
2017-10-15T06:04:13.291Z,12.6
2017-10-15T06:05:14.896Z,12.6
2017-10-15T06:06:16.505Z,12.6
2017-10-15T06:07:18.119Z,12.5
2017-10-15T06:08:19.731Z,12.5
2017-10-15T06:09:21.338Z,12.5
2017-10-15T06:10:22.948Z,12.5
2017-10-15T06:11:24.710Z,12.5
2017-10-15T06:12:28.601Z,12.5
2017-10-15T06:13:30.353Z,12.7
2017-10-15T06:14:31.959Z,12.6
2017-10-15T06:15:33.671Z,12.7
2017-10-15T06:16:35.279Z,12.7
2017-10-15T06:17:36.886Z,12.7
2017-10-15T06:18:38.495Z,12.6
2017-10-15T06:19:40.107Z,12.7
2017-10-15T06:20:42.023Z,12.7
2017-10-15T06:21:43.876Z,12.6
2017-10-15T06:22:45.780Z,12.7
2017-10-15T06:23:47.709Z,12.7
2017-10-15T06:24:49.314Z,12.7
2017-10-15T06:25:51.029Z,12.7
2017-10-15T06:26:52.635Z,12.7
2017-10-15T06:27:54.250Z,12.7
2017-10-15T06:28:55.855Z,12.8
2017-10-15T06:29:57.471Z,12.7
2017-10-15T06:30:59.080Z,12.7
2017-10-15T06:32:00.700Z,12.7
2017-10-15T06:33:02.305Z,12.9
2017-10-15T06:34:03.958Z,12.9
2017-10-15T06:35:05.568Z,12.9
2017-10-15T06:36:07.184Z,12.9
2017-10-15T06:37:08.795Z,12.9
2017-10-15T06:38:15.051Z,12.9
2017-10-15T06:39:21.208Z,12.9
2017-10-15T06:40:27.439Z,12.9
2017-10-15T06:41:33.751Z,12.9
2017-10-15T06:42:39.982Z,13.0
2017-10-15T06:43:48.446Z,12.9
2017-10-15T06:44:56.752Z,13.0
2017-10-15T06:46:05.048Z,13.0
2017-10-15T06:47:11.259Z,13.0
2017-10-15T06:48:17.466Z,13.0
2017-10-15T06:49:23.625Z,13.1
2017-10-15T06:50:29.850Z,13.2
2017-10-15T06:51:36.006Z,13.1
2017-10-15T06:52:42.361Z,13.1
2017-10-15T06:53:48.508Z,13.1
2017-10-15T06:54:55.067Z,13.2
2017-10-15T06:56:01.223Z,13.2
2017-10-15T06:57:06.955Z,13.1
2017-10-15T06:58:13.108Z,13.2
2017-10-15T06:59:14.815Z,13.2
2017-10-15T07:00:21.032Z,13.3
2017-10-15T07:01:27.211Z,13.3
2017-10-15T07:02:33.369Z,13.3
2017-10-15T07:03:39.579Z,13.4
2017-10-15T07:04:43.768Z,13.4
2017-10-15T07:05:50.073Z,13.4
2017-10-15T07:06:56.241Z,13.4
2017-10-15T07:08:02.400Z,13.5
2017-10-15T07:09:05.099Z,13.5
2017-10-15T07:10:09.851Z,13.5
2017-10-15T07:11:16.009Z,13.7
2017-10-15T07:12:18.217Z,13.8
2017-10-15T07:13:24.461Z,13.9
2017-10-15T07:14:27.440Z,13.9
2017-10-15T07:15:33.646Z,14.0
2017-10-15T07:16:39.797Z,13.9
2017-10-15T07:17:45.939Z,14.1
2017-10-15T07:18:52.146Z,14.2
2017-10-15T07:19:53.751Z,14.3
2017-10-15T07:20:55.546Z,14.9
2017-10-15T07:22:01.753Z,15.5
2017-10-15T07:23:07.957Z,16.6
2017-10-15T07:52:27.412Z,22.9
2017-10-15T07:53:33.598Z,23.9
2017-10-15T07:55:30.324Z,25.2
2017-10-15T07:56:33.186Z,25.6
2017-10-15T07:58:29.449Z,26.2
2017-10-15T07:59:33.564Z,26.8
2017-10-15T08:01:30.248Z,27.1
2017-10-15T08:02:35.362Z,27.5
2017-10-15T08:04:30.559Z,27.8
2017-10-15T08:05:34.438Z,28.0
2017-10-15T08:07:29.386Z,28.8
2017-10-15T08:08:31.918Z,28.4
2017-10-15T08:10:28.312Z,28.3
2017-10-15T08:11:34.509Z,28.6
2017-10-15T08:13:28.104Z,29.3
2017-10-15T08:14:29.903Z,29.2
2017-10-15T08:15:32.942Z,29.4
2017-10-15T08:16:38.502Z,29.2
2017-10-15T08:17:43.286Z,29.4
2017-10-15T08:18:49.527Z,29.6
2017-10-15T08:19:55.777Z,29.3
2017-10-15T08:21:00.564Z,29.6
2017-10-15T08:22:02.202Z,29.5
2017-10-15T08:23:03.834Z,30.0
2017-10-15T08:24:05.863Z,29.8
2017-10-15T08:25:12.124Z,30.1
2017-10-15T08:26:17.736Z,30.2
2017-10-15T08:27:23.931Z,30.4
2017-10-15T08:28:30.134Z,30.6
2017-10-15T08:29:32.283Z,30.6
2017-10-15T08:30:35.457Z,30.9
2017-10-15T08:31:41.700Z,30.5
2017-10-15T08:32:47.892Z,31.0
2017-10-15T08:33:54.690Z,31.1
2017-10-15T08:35:00.866Z,31.3
2017-10-15T08:36:07.134Z,31.6
2017-10-15T08:37:13.282Z,31.5
2017-10-15T08:38:19.478Z,31.2
2017-10-15T08:39:25.672Z,31.5
2017-10-15T08:40:31.919Z,31.9
2017-10-15T08:41:38.115Z,32.2
2017-10-15T08:42:44.379Z,32.4
2017-10-15T08:43:50.566Z,32.7
2017-10-15T08:44:57.223Z,32.7
2017-10-15T08:46:03.528Z,32.3
2017-10-15T08:47:10.084Z,32.4
2017-10-15T08:48:16.401Z,32.8
2017-10-15T08:49:22.650Z,33.3
2017-10-15T08:50:28.899Z,33.7
2017-10-15T08:51:35.097Z,33.7
2017-10-15T08:52:41.355Z,33.7
2017-10-15T08:53:44.732Z,33.5
2017-10-15T08:54:51.030Z,33.2
2017-10-15T08:55:57.277Z,33.3
2017-10-15T08:57:03.535Z,33.1
2017-10-15T08:58:10.022Z,33.1
2017-10-15T08:59:16.260Z,33.3
2017-10-15T09:00:22.447Z,33.4
2017-10-15T09:01:28.633Z,33.4
2017-10-15T09:02:35.401Z,33.5
2017-10-15T09:03:41.585Z,33.7
2017-10-15T09:04:48.205Z,33.0
2017-10-15T09:05:54.380Z,33.2
2017-10-15T09:06:59.937Z,33.2
2017-10-15T09:08:06.592Z,33.0
2017-10-15T09:09:12.822Z,32.9
2017-10-15T09:10:19.003Z,32.9
2017-10-15T09:11:25.249Z,32.4
2017-10-15T09:12:31.495Z,32.5
2017-10-15T09:13:37.758Z,33.0
2017-10-15T09:14:43.944Z,33.1
2017-10-15T09:15:50.135Z,32.6
2017-10-15T09:16:56.394Z,32.9
2017-10-15T09:18:02.576Z,33.4
2017-10-15T09:19:05.552Z,33.8
2017-10-15T09:20:11.848Z,33.8
2017-10-15T09:21:14.397Z,33.9
2017-10-15T09:22:19.450Z,34.1
2017-10-15T09:23:21.331Z,34.1
2017-10-15T09:24:27.014Z,34.4
2017-10-15T09:25:30.729Z,34.5
2017-10-15T09:26:33.514Z,34.5
2017-10-15T09:27:35.263Z,34.1
2017-10-15T09:28:39.019Z,34.2
2017-10-15T09:29:43.836Z,34.1
2017-10-15T09:30:46.786Z,34.4
2017-10-15T09:31:51.115Z,34.2
2017-10-15T09:32:54.164Z,34.3
2017-10-15T09:33:56.094Z,34.5
2017-10-15T09:34:58.584Z,34.1
2017-10-15T09:36:04.621Z,34.1
2017-10-15T09:37:10.877Z,33.8
2017-10-15T09:38:14.048Z,33.8
2017-10-15T09:39:15.866Z,33.7
2017-10-15T09:40:19.959Z,34.0
2017-10-15T09:41:26.227Z,33.9
2017-10-15T09:42:30.705Z,34.0
2017-10-15T09:43:33.130Z,33.9
2017-10-15T09:44:36.297Z,34.3
2017-10-15T09:45:41.585Z,34.4
2017-10-15T09:46:46.526Z,34.4
2017-10-15T09:47:52.665Z,34.7
2017-10-15T09:48:56.088Z,34.8
2017-10-15T09:50:02.362Z,34.5
2017-10-15T09:51:04.493Z,34.8
2017-10-15T09:52:10.628Z,34.5
2017-10-15T09:53:15.121Z,34.4
2017-10-15T09:54:17.443Z,34.4
2017-10-15T09:55:19.995Z,33.9
2017-10-15T09:56:24.117Z,33.9
2017-10-15T09:57:26.064Z,33.6
2017-10-15T09:58:32.355Z,33.4
2017-10-15T09:59:38.545Z,33.0
2017-10-15T10:00:44.804Z,33.3
2017-10-15T10:01:51.059Z,33.9
2017-10-15T10:02:57.249Z,34.0
2017-10-15T10:04:03.501Z,33.6
2017-10-15T10:05:09.687Z,33.5
2017-10-15T10:06:15.936Z,33.2
2017-10-15T10:07:22.159Z,33.4
2017-10-15T10:08:28.470Z,33.0
2017-10-15T10:09:34.651Z,33.3
2017-10-15T10:10:40.902Z,33.3
2017-10-15T10:11:47.093Z,33.3
2017-10-15T10:12:53.231Z,33.3
2017-10-15T10:13:59.316Z,33.6
2017-10-15T10:15:01.303Z,33.4
2017-10-15T10:16:07.163Z,33.3
2017-10-15T10:17:13.267Z,33.3
2017-10-15T10:18:16.473Z,33.6
2017-10-15T10:19:22.690Z,34.0
2017-10-15T10:20:28.754Z,34.1
2017-10-15T10:21:34.842Z,33.7
2017-10-15T10:22:38.337Z,33.7
2017-10-15T10:23:44.447Z,33.7
2017-10-15T10:24:50.556Z,33.7
2017-10-15T10:25:56.604Z,34.1
2017-10-15T10:27:01.508Z,34.2
2017-10-15T10:28:07.640Z,34.0
2017-10-15T10:29:10.014Z,34.2
2017-10-15T10:30:16.000Z,34.1
2017-10-15T10:31:19.450Z,34.2
2017-10-15T10:32:22.972Z,34.0
2017-10-15T10:33:29.201Z,34.0
2017-10-15T10:34:34.711Z,33.7
2017-10-15T10:35:40.978Z,33.4
2017-10-15T10:36:47.266Z,33.3
2017-10-15T10:37:53.532Z,33.0
2017-10-15T10:39:01.436Z,33.3
2017-10-15T10:40:08.734Z,33.1
2017-10-15T10:41:15.091Z,32.6
2017-10-15T10:42:23.223Z,32.4
2017-10-15T10:43:31.358Z,32.5
2017-10-15T10:44:39.399Z,32.6
2017-10-15T10:45:47.450Z,32.9
2017-10-15T10:46:55.864Z,32.5
2017-10-15T10:47:59.857Z,32.6
2017-10-15T10:49:07.351Z,33.1
2017-10-15T10:50:14.855Z,33.0
2017-10-15T10:51:22.466Z,32.6
2017-10-15T10:52:30.041Z,32.4
2017-10-15T10:53:37.580Z,32.3
2017-10-15T10:54:45.121Z,32.1
2017-10-15T10:55:52.747Z,32.0
2017-10-15T10:57:00.280Z,31.9
2017-10-15T10:58:07.875Z,32.3
2017-10-15T10:59:15.415Z,31.7
2017-10-15T11:00:26.390Z,31.8
2017-10-15T11:01:32.591Z,32.1
2017-10-15T11:02:38.857Z,32.2
2017-10-15T11:03:40.443Z,32.0
2017-10-15T11:04:42.088Z,31.4
2017-10-15T11:05:43.713Z,31.3
2017-10-15T11:06:45.347Z,31.3
2017-10-15T11:07:46.980Z,31.5
2017-10-15T11:08:48.608Z,31.5
2017-10-15T11:09:50.235Z,31.7
2017-10-15T11:10:51.871Z,31.4
2017-10-15T11:11:53.498Z,31.4
2017-10-15T11:12:55.123Z,31.0
2017-10-15T11:13:56.755Z,30.8
2017-10-15T11:14:58.387Z,30.7
2017-10-15T11:16:00.020Z,30.6
2017-10-15T11:17:01.641Z,30.8
2017-10-15T11:18:03.274Z,31.0
2017-10-15T11:19:04.937Z,31.3
2017-10-15T11:20:06.561Z,31.6
2017-10-15T11:21:08.189Z,31.8
2017-10-15T11:22:09.813Z,32.0
2017-10-15T11:23:11.449Z,31.9
2017-10-15T11:24:13.073Z,32.1
2017-10-15T11:25:14.704Z,32.0
2017-10-15T11:26:16.330Z,32.2
2017-10-15T11:27:17.960Z,32.1
2017-10-15T11:28:19.592Z,31.5
2017-10-15T11:29:21.216Z,31.2
2017-10-15T11:30:22.844Z,31.5
2017-10-15T11:31:24.478Z,31.5
2017-10-15T11:32:26.107Z,31.4
2017-10-15T11:33:27.730Z,31.7
2017-10-15T11:34:29.364Z,31.6
2017-10-15T11:35:30.996Z,32.1
2017-10-15T11:36:32.626Z,32.0
2017-10-15T11:37:34.254Z,31.9
2017-10-15T11:38:35.892Z,31.8
2017-10-15T11:39:37.507Z,32.0
2017-10-15T11:40:39.138Z,31.7
2017-10-15T11:41:40.762Z,31.7
2017-10-15T11:42:42.398Z,31.8
2017-10-15T11:43:44.023Z,31.3
2017-10-15T11:44:45.649Z,30.9
2017-10-15T11:45:47.282Z,30.9
2017-10-15T11:46:48.911Z,31.0
2017-10-15T11:47:50.536Z,31.1
2017-10-15T11:48:52.161Z,31.1
2017-10-15T11:49:53.787Z,31.3
2017-10-15T11:50:55.421Z,31.3
2017-10-15T11:51:57.048Z,31.5
2017-10-15T11:52:58.675Z,31.4
2017-10-15T11:54:00.298Z,31.3
2017-10-15T11:55:01.921Z,31.6
2017-10-15T11:56:03.553Z,31.6
2017-10-15T11:57:05.183Z,31.6
2017-10-15T11:58:06.805Z,31.7
2017-10-15T11:59:08.435Z,31.7
2017-10-15T12:00:10.066Z,31.3
2017-10-15T12:01:11.688Z,31.3
2017-10-15T12:02:13.318Z,31.5
2017-10-15T12:03:14.947Z,31.4
2017-10-15T12:04:16.573Z,31.2
2017-10-15T12:05:18.204Z,31.3
2017-10-15T12:06:19.829Z,31.1
2017-10-15T12:07:21.459Z,31.1
2017-10-15T12:08:23.079Z,31.0
2017-10-15T12:09:24.709Z,31.2
2017-10-15T12:10:26.332Z,30.8
2017-10-15T12:11:27.963Z,30.9
2017-10-15T12:12:29.592Z,30.9
2017-10-15T12:13:31.215Z,31.0
2017-10-15T12:14:32.836Z,31.3
2017-10-15T12:15:34.463Z,30.8
2017-10-15T12:16:36.083Z,30.7
2017-10-15T12:17:37.713Z,30.8
2017-10-15T12:18:39.335Z,30.6
2017-10-15T12:19:40.957Z,30.6
2017-10-15T12:20:42.580Z,30.4
2017-10-15T12:21:44.207Z,30.2
2017-10-15T12:22:45.830Z,30.4
2017-10-15T12:23:47.452Z,30.4
2017-10-15T12:24:49.077Z,30.4
2017-10-15T12:25:50.698Z,30.4
2017-10-15T12:26:52.326Z,30.6
2017-10-15T12:27:53.954Z,30.5
2017-10-15T12:28:55.571Z,30.5
2017-10-15T12:29:57.193Z,30.6
2017-10-15T12:30:58.824Z,30.8
2017-10-15T12:32:00.441Z,30.8
2017-10-15T12:33:02.065Z,30.6
2017-10-15T12:34:03.686Z,30.7
2017-10-15T12:35:05.317Z,30.8
2017-10-15T12:36:06.934Z,30.7
2017-10-15T12:37:08.554Z,30.4
2017-10-15T12:38:10.174Z,30.3
2017-10-15T12:39:11.797Z,30.2
2017-10-15T12:40:13.421Z,30.3
2017-10-15T12:41:15.052Z,30.2
2017-10-15T12:42:16.676Z,30.3
2017-10-15T12:43:18.303Z,30.2
2017-10-15T12:44:19.930Z,29.9
2017-10-15T12:45:21.554Z,29.9
2017-10-15T12:46:23.174Z,29.5
2017-10-15T12:47:24.801Z,29.3
2017-10-15T12:48:26.423Z,29.0
2017-10-15T12:49:28.048Z,29.2
2017-10-15T12:50:29.673Z,29.1
2017-10-15T12:51:31.292Z,28.9
2017-10-15T12:52:32.914Z,29.0
2017-10-15T12:53:34.539Z,28.9
2017-10-15T12:54:36.166Z,28.9
2017-10-15T12:55:37.795Z,28.9
2017-10-15T12:56:39.417Z,28.8
2017-10-15T12:57:41.042Z,28.7
2017-10-15T12:58:42.659Z,28.7
2017-10-15T12:59:44.288Z,28.7
2017-10-15T13:00:45.910Z,28.8
2017-10-15T13:01:47.539Z,28.7
2017-10-15T13:02:49.160Z,28.6
2017-10-15T13:03:50.794Z,28.6
2017-10-15T13:04:52.412Z,28.3
2017-10-15T13:05:54.042Z,28.3
2017-10-15T13:06:55.666Z,28.0
2017-10-15T13:07:57.286Z,27.9
2017-10-15T13:08:58.914Z,27.8
2017-10-15T13:10:00.539Z,27.8
2017-10-15T13:11:02.161Z,27.7
2017-10-15T13:12:03.779Z,27.5
2017-10-15T13:13:05.404Z,27.4
2017-10-15T13:14:07.021Z,27.3
2017-10-15T13:15:08.643Z,27.2
2017-10-15T13:16:10.272Z,27.1
2017-10-15T13:17:11.895Z,27.0
2017-10-15T13:18:13.516Z,26.8
2017-10-15T13:19:15.135Z,26.8
2017-10-15T13:20:16.759Z,26.7
2017-10-15T13:21:18.383Z,26.5
2017-10-15T13:22:20.005Z,26.5
2017-10-15T13:23:21.629Z,26.4
2017-10-15T13:24:23.249Z,26.2
2017-10-15T13:25:24.869Z,25.9
2017-10-15T13:26:26.489Z,25.9
2017-10-15T13:27:28.113Z,25.7
2017-10-15T13:28:29.735Z,25.6
2017-10-15T13:29:31.352Z,25.5
2017-10-15T13:30:32.977Z,25.5
2017-10-15T13:31:34.610Z,25.4
2017-10-15T13:32:36.222Z,25.4
2017-10-15T13:33:37.840Z,25.3
2017-10-15T13:34:39.464Z,25.2
2017-10-15T13:35:41.087Z,25.1
2017-10-15T13:36:42.705Z,25.1
2017-10-15T13:37:44.326Z,25.0
2017-10-15T13:38:45.952Z,24.9
2017-10-15T13:39:47.606Z,24.8
2017-10-15T13:40:49.217Z,24.8
2017-10-15T13:41:50.838Z,24.7
2017-10-15T13:42:52.453Z,24.7
2017-10-15T13:43:54.074Z,24.6
2017-10-15T13:44:55.696Z,24.6
2017-10-15T13:45:57.318Z,24.6
2017-10-15T13:46:58.939Z,24.7
2017-10-15T13:48:00.557Z,24.5
2017-10-15T13:49:02.181Z,24.4
2017-10-15T13:50:03.798Z,24.4
2017-10-15T13:51:05.421Z,24.4
2017-10-15T13:52:07.041Z,24.3
2017-10-15T13:53:08.668Z,24.2
2017-10-15T13:54:10.286Z,24.2
2017-10-15T13:55:11.910Z,24.2
2017-10-15T13:56:13.535Z,24.2
2017-10-15T13:57:15.153Z,24.1
2017-10-15T13:58:16.773Z,24.0
2017-10-15T13:59:18.397Z,24.0
2017-10-15T14:00:20.019Z,24.1
2017-10-15T14:01:21.646Z,24.1
2017-10-15T14:02:23.266Z,24.1
2017-10-15T14:03:24.884Z,24.0
2017-10-15T14:04:26.512Z,24.0
2017-10-15T14:05:28.127Z,24.0
2017-10-15T14:06:29.755Z,23.9
2017-10-15T14:07:31.371Z,23.9
2017-10-15T14:08:32.998Z,23.9
2017-10-15T14:09:34.695Z,23.8
2017-10-15T14:10:36.303Z,23.9
2017-10-15T14:11:37.928Z,23.8
2017-10-15T14:12:39.544Z,23.8
2017-10-15T14:13:41.203Z,23.9
2017-10-15T14:14:42.827Z,23.8
2017-10-15T14:15:44.452Z,23.8
2017-10-15T14:16:46.078Z,23.7
2017-10-15T14:17:47.693Z,23.8
2017-10-15T14:18:49.312Z,23.7
2017-10-15T14:19:50.936Z,23.7
2017-10-15T14:20:52.559Z,23.8
2017-10-15T14:21:54.176Z,23.7
2017-10-15T14:22:55.803Z,23.7
2017-10-15T14:23:57.420Z,23.8
2017-10-15T14:24:59.043Z,23.7
2017-10-15T14:26:00.658Z,23.8
2017-10-15T14:27:02.281Z,23.7
2017-10-15T14:28:03.902Z,23.7